sensor_id;sensor_type;location;lat;lon;timestamp;P1;durP1;ratioP1;P2;durP2;ratioP2
22230;SDS011;11284;48.086;-1.652;2023-11-19T00:02:10;12.23;;;3.00;;
22230;SDS011;11284;48.086;-1.652;2023-11-19T00:04:36;14.38;;;2.30;;
22230;SDS011;11284;48.086;-1.652;2023-11-19T00:07:04;9.73;;;2.40;;
22230;SDS011;11284;48.086;-1.652;2023-11-19T00:09:32;10.80;;;2.60;;
22230;SDS011;11284;48.086;-1.652;2023-11-19T00:11:57;13.10;;;2.03;;
22230;SDS011;11284;48.086;-1.652;2023-11-19T00:14:25;14.68;;;2.85;;
22230;SDS011;11284;48.086;-1.652;2023-11-19T00:16:51;12.77;;;2.35;;
22230;SDS011;11284;48.086;-1.652;2023-11-19T00:19:18;11.70;;;2.80;;
22230;SDS011;11284;48.086;-1.652;2023-11-19T00:21:44;10.27;;;2.42;;
22230;SDS011;11284;48.086;-1.652;2023-11-19T00:24:11;10.77;;;2.67;;
22230;SDS011;11284;48.086;-1.652;2023-11-19T00:26:37;12.80;;;2.65;;
22230;SDS011;11284;48.086;-1.652;2023-11-19T00:29:03;10.23;;;2.88;;
22230;SDS011;11284;48.086;-1.652;2023-11-19T00:31:30;12.07;;;2.75;;
22230;SDS011;11284;48.086;-1.652;2023-11-19T00:33:56;14.55;;;3.25;;
22230;SDS011;11284;48.086;-1.652;2023-11-19T00:36:22;14.60;;;3.15;;
22230;SDS011;11284;48.086;-1.652;2023-11-19T00:38:49;12.63;;;2.70;;
22230;SDS011;11284;48.086;-1.652;2023-11-19T00:41:15;16.25;;;3.72;;
22230;SDS011;11284;48.086;-1.652;2023-11-19T00:43:42;14.25;;;2.97;;
22230;SDS011;11284;48.086;-1.652;2023-11-19T00:46:08;13.88;;;3.03;;
22230;SDS011;11284;48.086;-1.652;2023-11-19T00:48:35;15.60;;;3.38;;
22230;SDS011;11284;48.086;-1.652;2023-11-19T00:51:01;11.95;;;3.25;;
22230;SDS011;11284;48.086;-1.652;2023-11-19T00:53:29;15.10;;;2.67;;
22230;SDS011;11284;48.086;-1.652;2023-11-19T00:55:55;14.73;;;3.33;;
22230;SDS011;11284;48.086;-1.652;2023-11-19T00:58:22;12.00;;;3.40;;
22230;SDS011;11284;48.086;-1.652;2023-11-19T01:00:48;12.82;;;3.30;;
22230;SDS011;11284;48.086;-1.652;2023-11-19T01:03:14;13.48;;;3.33;;
22230;SDS011;11284;48.086;-1.652;2023-11-19T01:05:40;14.55;;;3.47;;
22230;SDS011;11284;48.086;-1.652;2023-11-19T01:08:07;13.48;;;3.08;;
22230;SDS011;11284;48.086;-1.652;2023-11-19T01:10:34;14.27;;;3.30;;
22230;SDS011;11284;48.086;-1.652;2023-11-19T01:13:02;14.95;;;2.75;;
22230;SDS011;11284;48.086;-1.652;2023-11-19T01:15:30;15.85;;;3.35;;
22230;SDS011;11284;48.086;-1.652;2023-11-19T01:17:56;18.70;;;3.60;;
22230;SDS011;11284;48.086;-1.652;2023-11-19T01:20:22;16.88;;;3.28;;
22230;SDS011;11284;48.086;-1.652;2023-11-19T01:22:49;16.98;;;3.45;;
22230;SDS011;11284;48.086;-1.652;2023-11-19T01:25:15;19.27;;;3.40;;
22230;SDS011;11284;48.086;-1.652;2023-11-19T01:27:41;19.55;;;3.83;;
22230;SDS011;11284;48.086;-1.652;2023-11-19T01:30:07;15.35;;;3.50;;
22230;SDS011;11284;48.086;-1.652;2023-11-19T01:32:40;19.67;;;3.67;;
22230;SDS011;11284;48.086;-1.652;2023-11-19T01:35:06;14.90;;;3.30;;
22230;SDS011;11284;48.086;-1.652;2023-11-19T01:37:33;15.93;;;3.47;;
22230;SDS011;11284;48.086;-1.652;2023-11-19T01:40:02;16.25;;;3.75;;
22230;SDS011;11284;48.086;-1.652;2023-11-19T01:42:29;18.75;;;3.90;;
22230;SDS011;11284;48.086;-1.652;2023-11-19T01:44:58;19.95;;;3.50;;
22230;SDS011;11284;48.086;-1.652;2023-11-19T01:47:27;16.15;;;3.28;;
22230;SDS011;11284;48.086;-1.652;2023-11-19T01:49:54;19.25;;;4.20;;
22230;SDS011;11284;48.086;-1.652;2023-11-19T01:52:21;17.88;;;3.42;;
22230;SDS011;11284;48.086;-1.652;2023-11-19T01:54:47;20.13;;;3.78;;
22230;SDS011;11284;48.086;-1.652;2023-11-19T01:57:13;23.88;;;4.50;;
22230;SDS011;11284;48.086;-1.652;2023-11-19T01:59:40;20.85;;;4.30;;
22230;SDS011;11284;48.086;-1.652;2023-11-19T02:02:07;19.85;;;3.67;;
22230;SDS011;11284;48.086;-1.652;2023-11-19T02:04:33;20.00;;;4.05;;
22230;SDS011;11284;48.086;-1.652;2023-11-19T02:07:00;20.25;;;3.90;;
22230;SDS011;11284;48.086;-1.652;2023-11-19T02:09:26;15.77;;;3.72;;
22230;SDS011;11284;48.086;-1.652;2023-11-19T02:11:53;17.75;;;3.67;;
22230;SDS011;11284;48.086;-1.652;2023-11-19T02:14:19;21.02;;;4.15;;
22230;SDS011;11284;48.086;-1.652;2023-11-19T02:16:47;19.88;;;4.05;;
22230;SDS011;11284;48.086;-1.652;2023-11-19T02:19:14;23.13;;;4.43;;
22230;SDS011;11284;48.086;-1.652;2023-11-19T02:21:40;21.70;;;3.97;;
22230;SDS011;11284;48.086;-1.652;2023-11-19T02:24:07;22.77;;;3.95;;
22230;SDS011;11284;48.086;-1.652;2023-11-19T02:26:37;21.73;;;3.95;;
22230;SDS011;11284;48.086;-1.652;2023-11-19T02:29:05;18.35;;;4.05;;
22230;SDS011;11284;48.086;-1.652;2023-11-19T02:31:31;19.85;;;4.25;;
22230;SDS011;11284;48.086;-1.652;2023-11-19T02:33:59;23.25;;;3.92;;
22230;SDS011;11284;48.086;-1.652;2023-11-19T02:36:27;19.80;;;3.65;;
22230;SDS011;11284;48.086;-1.652;2023-11-19T02:38:53;20.20;;;3.90;;
22230;SDS011;11284;48.086;-1.652;2023-11-19T02:41:20;25.70;;;4.32;;
22230;SDS011;11284;48.086;-1.652;2023-11-19T02:43:46;22.83;;;3.75;;
22230;SDS011;11284;48.086;-1.652;2023-11-19T02:46:13;24.45;;;4.10;;
22230;SDS011;11284;48.086;-1.652;2023-11-19T02:48:40;19.80;;;4.75;;
22230;SDS011;11284;48.086;-1.652;2023-11-19T02:51:08;20.83;;;4.60;;
22230;SDS011;11284;48.086;-1.652;2023-11-19T02:53:34;24.20;;;4.82;;
22230;SDS011;11284;48.086;-1.652;2023-11-19T02:56:00;23.13;;;4.13;;
22230;SDS011;11284;48.086;-1.652;2023-11-19T02:58:29;23.55;;;4.75;;
22230;SDS011;11284;48.086;-1.652;2023-11-19T03:00:55;23.48;;;4.75;;
22230;SDS011;11284;48.086;-1.652;2023-11-19T03:03:34;22.98;;;5.10;;
22230;SDS011;11284;48.086;-1.652;2023-11-19T03:06:05;20.75;;;4.75;;
22230;SDS011;11284;48.086;-1.652;2023-11-19T03:08:31;26.90;;;5.30;;
22230;SDS011;11284;48.086;-1.652;2023-11-19T03:10:58;21.45;;;3.88;;
22230;SDS011;11284;48.086;-1.652;2023-11-19T03:13:24;19.48;;;4.97;;
22230;SDS011;11284;48.086;-1.652;2023-11-19T03:15:50;20.15;;;4.57;;
22230;SDS011;11284;48.086;-1.652;2023-11-19T03:18:16;24.60;;;4.32;;
22230;SDS011;11284;48.086;-1.652;2023-11-19T03:20:42;20.02;;;4.68;;
22230;SDS011;11284;48.086;-1.652;2023-11-19T03:23:08;24.13;;;5.15;;
22230;SDS011;11284;48.086;-1.652;2023-11-19T03:25:35;23.33;;;4.57;;
22230;SDS011;11284;48.086;-1.652;2023-11-19T03:28:02;30.50;;;5.47;;
22230;SDS011;11284;48.086;-1.652;2023-11-19T03:30:29;23.98;;;5.05;;
22230;SDS011;11284;48.086;-1.652;2023-11-19T03:32:56;24.92;;;4.80;;
22230;SDS011;11284;48.086;-1.652;2023-11-19T03:35:22;26.45;;;5.28;;
22230;SDS011;11284;48.086;-1.652;2023-11-19T03:37:49;20.20;;;4.28;;
22230;SDS011;11284;48.086;-1.652;2023-11-19T03:40:15;25.55;;;5.35;;
22230;SDS011;11284;48.086;-1.652;2023-11-19T03:42:41;29.15;;;5.32;;
22230;SDS011;11284;48.086;-1.652;2023-11-19T03:45:07;24.52;;;5.10;;
22230;SDS011;11284;48.086;-1.652;2023-11-19T03:47:37;31.02;;;5.43;;
22230;SDS011;11284;48.086;-1.652;2023-11-19T03:50:03;24.98;;;5.10;;
22230;SDS011;11284;48.086;-1.652;2023-11-19T03:52:30;27.73;;;5.97;;
22230;SDS011;11284;48.086;-1.652;2023-11-19T03:54:56;25.13;;;5.05;;
22230;SDS011;11284;48.086;-1.652;2023-11-19T03:57:22;28.80;;;5.80;;
22230;SDS011;11284;48.086;-1.652;2023-11-19T03:59:48;27.20;;;4.75;;
22230;SDS011;11284;48.086;-1.652;2023-11-19T04:02:14;27.98;;;5.93;;
22230;SDS011;11284;48.086;-1.652;2023-11-19T04:04:40;28.73;;;5.47;;
22230;SDS011;11284;48.086;-1.652;2023-11-19T04:07:06;23.00;;;5.05;;
22230;SDS011;11284;48.086;-1.652;2023-11-19T04:09:32;25.85;;;4.88;;
22230;SDS011;11284;48.086;-1.652;2023-11-19T04:11:59;25.38;;;5.10;;
22230;SDS011;11284;48.086;-1.652;2023-11-19T04:14:25;28.55;;;5.28;;
22230;SDS011;11284;48.086;-1.652;2023-11-19T04:16:52;25.48;;;5.00;;
22230;SDS011;11284;48.086;-1.652;2023-11-19T04:19:18;31.25;;;5.65;;
22230;SDS011;11284;48.086;-1.652;2023-11-19T04:21:44;25.08;;;4.60;;
22230;SDS011;11284;48.086;-1.652;2023-11-19T04:24:10;28.33;;;5.40;;
22230;SDS011;11284;48.086;-1.652;2023-11-19T04:26:43;27.30;;;4.78;;
22230;SDS011;11284;48.086;-1.652;2023-11-19T04:29:13;26.23;;;5.67;;
22230;SDS011;11284;48.086;-1.652;2023-11-19T04:31:40;29.10;;;4.97;;
22230;SDS011;11284;48.086;-1.652;2023-11-19T04:34:06;28.92;;;6.18;;
22230;SDS011;11284;48.086;-1.652;2023-11-19T04:36:32;25.95;;;5.70;;
22230;SDS011;11284;48.086;-1.652;2023-11-19T04:38:59;27.50;;;5.10;;
22230;SDS011;11284;48.086;-1.652;2023-11-19T04:41:25;26.23;;;5.43;;
22230;SDS011;11284;48.086;-1.652;2023-11-19T04:43:53;29.55;;;5.47;;
22230;SDS011;11284;48.086;-1.652;2023-11-19T04:46:18;23.52;;;5.15;;
22230;SDS011;11284;48.086;-1.652;2023-11-19T04:48:45;25.95;;;5.07;;
22230;SDS011;11284;48.086;-1.652;2023-11-19T04:51:11;31.70;;;5.82;;
22230;SDS011;11284;48.086;-1.652;2023-11-19T04:53:37;30.40;;;5.95;;
22230;SDS011;11284;48.086;-1.652;2023-11-19T04:56:09;28.15;;;5.47;;
22230;SDS011;11284;48.086;-1.652;2023-11-19T04:58:35;36.42;;;6.57;;
22230;SDS011;11284;48.086;-1.652;2023-11-19T05:01:02;31.73;;;5.80;;
22230;SDS011;11284;48.086;-1.652;2023-11-19T05:03:28;27.08;;;5.53;;
22230;SDS011;11284;48.086;-1.652;2023-11-19T05:05:54;29.98;;;5.75;;
22230;SDS011;11284;48.086;-1.652;2023-11-19T05:08:20;28.55;;;6.25;;
22230;SDS011;11284;48.086;-1.652;2023-11-19T05:10:46;32.22;;;6.47;;
22230;SDS011;11284;48.086;-1.652;2023-11-19T05:13:12;30.25;;;5.70;;
22230;SDS011;11284;48.086;-1.652;2023-11-19T05:15:38;28.15;;;5.32;;
22230;SDS011;11284;48.086;-1.652;2023-11-19T05:18:04;30.95;;;5.60;;
22230;SDS011;11284;48.086;-1.652;2023-11-19T05:20:30;27.35;;;5.82;;
22230;SDS011;11284;48.086;-1.652;2023-11-19T05:22:56;28.48;;;5.60;;
22230;SDS011;11284;48.086;-1.652;2023-11-19T05:25:25;31.05;;;5.68;;
22230;SDS011;11284;48.086;-1.652;2023-11-19T05:27:51;29.27;;;5.70;;
22230;SDS011;11284;48.086;-1.652;2023-11-19T05:30:17;40.97;;;6.38;;
22230;SDS011;11284;48.086;-1.652;2023-11-19T05:32:43;29.58;;;5.93;;
22230;SDS011;11284;48.086;-1.652;2023-11-19T05:35:10;27.80;;;5.47;;
22230;SDS011;11284;48.086;-1.652;2023-11-19T05:37:36;25.13;;;5.43;;
22230;SDS011;11284;48.086;-1.652;2023-11-19T05:40:03;29.20;;;5.45;;
22230;SDS011;11284;48.086;-1.652;2023-11-19T05:42:31;31.95;;;6.03;;
22230;SDS011;11284;48.086;-1.652;2023-11-19T05:44:57;31.45;;;5.20;;
22230;SDS011;11284;48.086;-1.652;2023-11-19T05:47:23;26.77;;;5.15;;
22230;SDS011;11284;48.086;-1.652;2023-11-19T05:49:49;30.60;;;5.78;;
22230;SDS011;11284;48.086;-1.652;2023-11-19T05:52:15;32.45;;;5.60;;
22230;SDS011;11284;48.086;-1.652;2023-11-19T05:54:41;31.65;;;5.97;;
22230;SDS011;11284;48.086;-1.652;2023-11-19T05:57:07;30.35;;;6.88;;
22230;SDS011;11284;48.086;-1.652;2023-11-19T05:59:38;30.10;;;5.72;;
22230;SDS011;11284;48.086;-1.652;2023-11-19T06:02:04;31.65;;;6.05;;
22230;SDS011;11284;48.086;-1.652;2023-11-19T06:04:30;36.10;;;6.13;;
22230;SDS011;11284;48.086;-1.652;2023-11-19T06:06:56;33.05;;;5.80;;
22230;SDS011;11284;48.086;-1.652;2023-11-19T06:09:22;31.55;;;5.65;;
22230;SDS011;11284;48.086;-1.652;2023-11-19T06:11:49;32.30;;;5.93;;
22230;SDS011;11284;48.086;-1.652;2023-11-19T06:14:16;25.00;;;6.68;;
22230;SDS011;11284;48.086;-1.652;2023-11-19T06:16:42;33.35;;;6.32;;
22230;SDS011;11284;48.086;-1.652;2023-11-19T06:19:09;28.30;;;5.78;;
22230;SDS011;11284;48.086;-1.652;2023-11-19T06:21:36;26.15;;;5.65;;
22230;SDS011;11284;48.086;-1.652;2023-11-19T06:24:02;34.97;;;6.75;;
22230;SDS011;11284;48.086;-1.652;2023-11-19T06:26:28;27.30;;;5.68;;
22230;SDS011;11284;48.086;-1.652;2023-11-19T06:28:54;29.42;;;6.22;;
22230;SDS011;11284;48.086;-1.652;2023-11-19T06:31:20;34.88;;;6.38;;
22230;SDS011;11284;48.086;-1.652;2023-11-19T06:33:46;26.25;;;5.18;;
22230;SDS011;11284;48.086;-1.652;2023-11-19T06:36:15;33.42;;;6.20;;
22230;SDS011;11284;48.086;-1.652;2023-11-19T06:38:42;31.10;;;5.55;;
22230;SDS011;11284;48.086;-1.652;2023-11-19T06:41:08;33.28;;;5.95;;
22230;SDS011;11284;48.086;-1.652;2023-11-19T06:43:34;28.48;;;5.70;;
22230;SDS011;11284;48.086;-1.652;2023-11-19T06:46:01;29.60;;;5.90;;
22230;SDS011;11284;48.086;-1.652;2023-11-19T06:48:27;23.92;;;5.60;;
22230;SDS011;11284;48.086;-1.652;2023-11-19T06:50:53;33.05;;;5.50;;
22230;SDS011;11284;48.086;-1.652;2023-11-19T06:53:18;30.90;;;5.32;;
22230;SDS011;11284;48.086;-1.652;2023-11-19T06:55:44;27.67;;;5.68;;
22230;SDS011;11284;48.086;-1.652;2023-11-19T06:58:10;26.80;;;5.90;;
22230;SDS011;11284;48.086;-1.652;2023-11-19T07:00:37;31.17;;;6.13;;
22230;SDS011;11284;48.086;-1.652;2023-11-19T07:03:03;29.00;;;5.47;;
22230;SDS011;11284;48.086;-1.652;2023-11-19T07:05:35;30.30;;;5.30;;
22230;SDS011;11284;48.086;-1.652;2023-11-19T07:08:03;26.52;;;5.07;;
22230;SDS011;11284;48.086;-1.652;2023-11-19T07:10:29;37.95;;;6.60;;
22230;SDS011;11284;48.086;-1.652;2023-11-19T07:12:55;33.45;;;5.57;;
22230;SDS011;11284;48.086;-1.652;2023-11-19T07:15:22;31.80;;;5.78;;
22230;SDS011;11284;48.086;-1.652;2023-11-19T07:17:48;28.63;;;5.25;;
22230;SDS011;11284;48.086;-1.652;2023-11-19T07:20:14;33.97;;;6.15;;
22230;SDS011;11284;48.086;-1.652;2023-11-19T07:22:43;26.90;;;6.38;;
22230;SDS011;11284;48.086;-1.652;2023-11-19T07:25:13;28.77;;;6.28;;
22230;SDS011;11284;48.086;-1.652;2023-11-19T07:27:39;32.20;;;5.60;;
22230;SDS011;11284;48.086;-1.652;2023-11-19T07:30:05;30.92;;;5.45;;
22230;SDS011;11284;48.086;-1.652;2023-11-19T07:32:34;26.10;;;5.70;;
22230;SDS011;11284;48.086;-1.652;2023-11-19T07:35:00;28.60;;;6.10;;
22230;SDS011;11284;48.086;-1.652;2023-11-19T07:37:27;32.67;;;6.22;;
22230;SDS011;11284;48.086;-1.652;2023-11-19T07:39:53;28.85;;;6.78;;
22230;SDS011;11284;48.086;-1.652;2023-11-19T07:42:19;35.65;;;6.22;;
22230;SDS011;11284;48.086;-1.652;2023-11-19T07:44:45;27.85;;;5.97;;
22230;SDS011;11284;48.086;-1.652;2023-11-19T07:47:11;28.70;;;5.72;;
22230;SDS011;11284;48.086;-1.652;2023-11-19T07:49:37;31.48;;;6.55;;
22230;SDS011;11284;48.086;-1.652;2023-11-19T07:52:04;35.85;;;6.30;;
22230;SDS011;11284;48.086;-1.652;2023-11-19T07:54:30;31.90;;;6.35;;
22230;SDS011;11284;48.086;-1.652;2023-11-19T07:56:56;32.08;;;5.95;;
22230;SDS011;11284;48.086;-1.652;2023-11-19T07:59:22;31.30;;;5.47;;
22230;SDS011;11284;48.086;-1.652;2023-11-19T08:01:48;30.13;;;5.60;;
22230;SDS011;11284;48.086;-1.652;2023-11-19T08:04:14;30.60;;;6.78;;
22230;SDS011;11284;48.086;-1.652;2023-11-19T08:06:40;34.97;;;5.63;;
22230;SDS011;11284;48.086;-1.652;2023-11-19T08:09:06;36.40;;;6.38;;
22230;SDS011;11284;48.086;-1.652;2023-11-19T08:11:38;29.52;;;5.85;;
22230;SDS011;11284;48.086;-1.652;2023-11-19T08:14:04;25.33;;;5.70;;
22230;SDS011;11284;48.086;-1.652;2023-11-19T08:16:30;31.42;;;5.95;;
22230;SDS011;11284;48.086;-1.652;2023-11-19T08:18:56;32.88;;;6.32;;
22230;SDS011;11284;48.086;-1.652;2023-11-19T08:21:23;31.48;;;6.40;;
22230;SDS011;11284;48.086;-1.652;2023-11-19T08:23:49;33.72;;;6.57;;
22230;SDS011;11284;48.086;-1.652;2023-11-19T08:26:15;38.65;;;5.95;;
22230;SDS011;11284;48.086;-1.652;2023-11-19T08:28:42;29.25;;;5.22;;
22230;SDS011;11284;48.086;-1.652;2023-11-19T08:31:08;35.40;;;5.75;;
22230;SDS011;11284;48.086;-1.652;2023-11-19T08:33:34;26.38;;;5.18;;
22230;SDS011;11284;48.086;-1.652;2023-11-19T08:36:00;34.67;;;6.38;;
22230;SDS011;11284;48.086;-1.652;2023-11-19T08:38:28;33.13;;;5.82;;
22230;SDS011;11284;48.086;-1.652;2023-11-19T08:40:54;28.08;;;6.40;;
22230;SDS011;11284;48.086;-1.652;2023-11-19T08:43:25;36.33;;;6.15;;
22230;SDS011;11284;48.086;-1.652;2023-11-19T08:45:51;35.92;;;6.53;;
22230;SDS011;11284;48.086;-1.652;2023-11-19T08:48:17;30.48;;;5.97;;
22230;SDS011;11284;48.086;-1.652;2023-11-19T08:50:43;28.02;;;6.00;;
22230;SDS011;11284;48.086;-1.652;2023-11-19T08:53:09;30.45;;;6.38;;
22230;SDS011;11284;48.086;-1.652;2023-11-19T08:55:36;30.58;;;5.82;;
22230;SDS011;11284;48.086;-1.652;2023-11-19T08:58:02;28.60;;;5.63;;
22230;SDS011;11284;48.086;-1.652;2023-11-19T09:00:28;28.27;;;5.85;;
22230;SDS011;11284;48.086;-1.652;2023-11-19T09:02:54;26.45;;;5.53;;
22230;SDS011;11284;48.086;-1.652;2023-11-19T09:05:20;35.67;;;6.93;;
22230;SDS011;11284;48.086;-1.652;2023-11-19T09:07:46;39.75;;;6.38;;
22230;SDS011;11284;48.086;-1.652;2023-11-19T09:10:14;28.23;;;5.65;;
22230;SDS011;11284;48.086;-1.652;2023-11-19T09:12:40;35.08;;;13.75;;
22230;SDS011;11284;48.086;-1.652;2023-11-19T09:15:07;34.97;;;8.02;;
22230;SDS011;11284;48.086;-1.652;2023-11-19T09:17:35;34.65;;;6.20;;
22230;SDS011;11284;48.086;-1.652;2023-11-19T09:20:01;29.77;;;6.30;;
22230;SDS011;11284;48.086;-1.652;2023-11-19T09:22:27;28.23;;;5.85;;
22230;SDS011;11284;48.086;-1.652;2023-11-19T09:24:53;28.77;;;6.47;;
22230;SDS011;11284;48.086;-1.652;2023-11-19T09:27:19;26.05;;;5.65;;
22230;SDS011;11284;48.086;-1.652;2023-11-19T09:29:45;27.95;;;5.53;;
22230;SDS011;11284;48.086;-1.652;2023-11-19T09:32:13;29.52;;;5.47;;
22230;SDS011;11284;48.086;-1.652;2023-11-19T09:34:39;26.85;;;5.72;;
22230;SDS011;11284;48.086;-1.652;2023-11-19T09:37:05;31.67;;;7.18;;
22230;SDS011;11284;48.086;-1.652;2023-11-19T09:39:32;31.23;;;6.13;;
22230;SDS011;11284;48.086;-1.652;2023-11-19T09:41:58;27.65;;;5.88;;
22230;SDS011;11284;48.086;-1.652;2023-11-19T09:44:25;30.35;;;6.57;;
22230;SDS011;11284;48.086;-1.652;2023-11-19T09:46:51;23.50;;;5.80;;
22230;SDS011;11284;48.086;-1.652;2023-11-19T09:49:18;26.08;;;5.10;;
22230;SDS011;11284;48.086;-1.652;2023-11-19T09:51:46;28.42;;;6.40;;
22230;SDS011;11284;48.086;-1.652;2023-11-19T09:54:12;27.38;;;7.57;;
22230;SDS011;11284;48.086;-1.652;2023-11-19T09:56:38;25.90;;;6.13;;
22230;SDS011;11284;48.086;-1.652;2023-11-19T09:59:05;28.63;;;5.97;;
22230;SDS011;11284;48.086;-1.652;2023-11-19T10:01:31;24.48;;;5.75;;
22230;SDS011;11284;48.086;-1.652;2023-11-19T10:03:57;28.02;;;5.97;;
22230;SDS011;11284;48.086;-1.652;2023-11-19T10:06:23;25.00;;;6.55;;
22230;SDS011;11284;48.086;-1.652;2023-11-19T10:08:51;30.35;;;5.97;;
22230;SDS011;11284;48.086;-1.652;2023-11-19T10:11:18;23.85;;;5.60;;
22230;SDS011;11284;48.086;-1.652;2023-11-19T10:13:44;26.02;;;6.32;;
22230;SDS011;11284;48.086;-1.652;2023-11-19T10:16:12;33.58;;;6.97;;
22230;SDS011;11284;48.086;-1.652;2023-11-19T10:18:48;29.90;;;6.43;;
22230;SDS011;11284;48.086;-1.652;2023-11-19T10:21:18;31.02;;;6.40;;
22230;SDS011;11284;48.086;-1.652;2023-11-19T10:23:47;25.73;;;6.30;;
22230;SDS011;11284;48.086;-1.652;2023-11-19T10:26:14;29.75;;;7.07;;
22230;SDS011;11284;48.086;-1.652;2023-11-19T10:28:40;30.90;;;6.18;;
22230;SDS011;11284;48.086;-1.652;2023-11-19T10:31:09;28.48;;;5.13;;
22230;SDS011;11284;48.086;-1.652;2023-11-19T10:33:35;25.17;;;5.80;;
22230;SDS011;11284;48.086;-1.652;2023-11-19T10:36:01;25.80;;;5.55;;
22230;SDS011;11284;48.086;-1.652;2023-11-19T10:38:27;27.67;;;5.13;;
22230;SDS011;11284;48.086;-1.652;2023-11-19T10:40:53;31.05;;;6.88;;
22230;SDS011;11284;48.086;-1.652;2023-11-19T10:43:20;24.42;;;5.28;;
22230;SDS011;11284;48.086;-1.652;2023-11-19T10:45:50;20.30;;;4.88;;
22230;SDS011;11284;48.086;-1.652;2023-11-19T10:48:16;22.63;;;5.00;;
22230;SDS011;11284;48.086;-1.652;2023-11-19T10:50:43;21.58;;;5.15;;
22230;SDS011;11284;48.086;-1.652;2023-11-19T10:53:10;26.63;;;5.30;;
22230;SDS011;11284;48.086;-1.652;2023-11-19T10:55:38;26.13;;;4.80;;
22230;SDS011;11284;48.086;-1.652;2023-11-19T11:00:34;23.25;;;4.53;;
22230;SDS011;11284;48.086;-1.652;2023-11-19T11:03:05;28.65;;;4.93;;
22230;SDS011;11284;48.086;-1.652;2023-11-19T11:05:35;25.90;;;4.78;;
22230;SDS011;11284;48.086;-1.652;2023-11-19T11:08:01;26.42;;;5.45;;
22230;SDS011;11284;48.086;-1.652;2023-11-19T11:10:29;22.63;;;5.30;;
22230;SDS011;11284;48.086;-1.652;2023-11-19T11:12:59;23.08;;;5.45;;
22230;SDS011;11284;48.086;-1.652;2023-11-19T11:15:28;22.25;;;5.07;;
22230;SDS011;11284;48.086;-1.652;2023-11-19T11:17:56;22.45;;;5.10;;
22230;SDS011;11284;48.086;-1.652;2023-11-19T11:20:23;31.65;;;5.65;;
22230;SDS011;11284;48.086;-1.652;2023-11-19T11:25:48;24.25;;;5.03;;
22230;SDS011;11284;48.086;-1.652;2023-11-19T11:38:27;25.10;;;4.78;;
22230;SDS011;11284;48.086;-1.652;2023-11-19T11:43:48;25.77;;;4.70;;
22230;SDS011;11284;48.086;-1.652;2023-11-19T11:49:06;25.20;;;5.60;;
22230;SDS011;11284;48.086;-1.652;2023-11-19T11:54:10;26.95;;;5.22;;
22230;SDS011;11284;48.086;-1.652;2023-11-19T11:56:37;27.10;;;4.82;;
22230;SDS011;11284;48.086;-1.652;2023-11-19T11:59:07;20.33;;;4.88;;
22230;SDS011;11284;48.086;-1.652;2023-11-19T12:01:33;23.42;;;5.28;;
22230;SDS011;11284;48.086;-1.652;2023-11-19T12:03:59;27.77;;;6.03;;
22230;SDS011;11284;48.086;-1.652;2023-11-19T12:06:26;22.13;;;4.82;;
22230;SDS011;11284;48.086;-1.652;2023-11-19T12:08:52;20.67;;;4.55;;
22230;SDS011;11284;48.086;-1.652;2023-11-19T12:11:25;22.60;;;4.50;;
22230;SDS011;11284;48.086;-1.652;2023-11-19T12:13:53;23.65;;;4.63;;
22230;SDS011;11284;48.086;-1.652;2023-11-19T12:16:21;24.60;;;4.43;;
22230;SDS011;11284;48.086;-1.652;2023-11-19T12:18:47;20.27;;;4.55;;
22230;SDS011;11284;48.086;-1.652;2023-11-19T12:21:27;22.73;;;4.70;;
22230;SDS011;11284;48.086;-1.652;2023-11-19T12:23:53;20.15;;;4.32;;
22230;SDS011;11284;48.086;-1.652;2023-11-19T12:26:33;20.35;;;3.92;;
22230;SDS011;11284;48.086;-1.652;2023-11-19T12:29:00;23.20;;;4.28;;
22230;SDS011;11284;48.086;-1.652;2023-11-19T12:31:26;23.05;;;4.40;;
22230;SDS011;11284;48.086;-1.652;2023-11-19T12:33:52;17.02;;;3.80;;
22230;SDS011;11284;48.086;-1.652;2023-11-19T12:36:18;17.88;;;4.10;;
22230;SDS011;11284;48.086;-1.652;2023-11-19T12:38:44;22.10;;;4.55;;
22230;SDS011;11284;48.086;-1.652;2023-11-19T12:41:12;20.10;;;3.80;;
22230;SDS011;11284;48.086;-1.652;2023-11-19T12:43:42;21.35;;;5.07;;
22230;SDS011;11284;48.086;-1.652;2023-11-19T12:46:21;16.85;;;3.88;;
22230;SDS011;11284;48.086;-1.652;2023-11-19T12:48:48;22.15;;;5.05;;
22230;SDS011;11284;48.086;-1.652;2023-11-19T12:51:14;21.17;;;4.47;;
22230;SDS011;11284;48.086;-1.652;2023-11-19T12:53:47;20.83;;;4.78;;
22230;SDS011;11284;48.086;-1.652;2023-11-19T12:56:13;22.13;;;4.68;;
22230;SDS011;11284;48.086;-1.652;2023-11-19T12:58:40;23.00;;;4.68;;
22230;SDS011;11284;48.086;-1.652;2023-11-19T13:01:08;24.27;;;4.80;;
22230;SDS011;11284;48.086;-1.652;2023-11-19T13:03:37;23.05;;;5.60;;
22230;SDS011;11284;48.086;-1.652;2023-11-19T13:06:09;22.23;;;4.05;;
22230;SDS011;11284;48.086;-1.652;2023-11-19T13:11:10;23.88;;;4.10;;
22230;SDS011;11284;48.086;-1.652;2023-11-19T13:16:20;16.33;;;3.55;;
22230;SDS011;11284;48.086;-1.652;2023-11-19T13:18:47;18.60;;;3.60;;
22230;SDS011;11284;48.086;-1.652;2023-11-19T13:21:13;19.15;;;4.03;;
22230;SDS011;11284;48.086;-1.652;2023-11-19T13:23:39;12.90;;;3.30;;
22230;SDS011;11284;48.086;-1.652;2023-11-19T13:26:05;16.75;;;3.88;;
22230;SDS011;11284;48.086;-1.652;2023-11-19T13:28:31;18.77;;;3.97;;
22230;SDS011;11284;48.086;-1.652;2023-11-19T13:30:57;22.33;;;4.35;;
22230;SDS011;11284;48.086;-1.652;2023-11-19T13:33:23;16.15;;;3.63;;
22230;SDS011;11284;48.086;-1.652;2023-11-19T13:35:49;18.63;;;4.30;;
22230;SDS011;11284;48.086;-1.652;2023-11-19T13:38:15;18.55;;;3.95;;
22230;SDS011;11284;48.086;-1.652;2023-11-19T13:40:41;19.85;;;4.10;;
22230;SDS011;11284;48.086;-1.652;2023-11-19T13:43:07;20.90;;;4.32;;
22230;SDS011;11284;48.086;-1.652;2023-11-19T13:45:33;22.30;;;3.70;;
22230;SDS011;11284;48.086;-1.652;2023-11-19T13:47:59;20.27;;;4.88;;
22230;SDS011;11284;48.086;-1.652;2023-11-19T13:50:26;20.35;;;4.05;;
22230;SDS011;11284;48.086;-1.652;2023-11-19T13:52:53;17.80;;;3.95;;
22230;SDS011;11284;48.086;-1.652;2023-11-19T13:55:19;18.98;;;3.85;;
22230;SDS011;11284;48.086;-1.652;2023-11-19T13:57:47;18.83;;;3.88;;
22230;SDS011;11284;48.086;-1.652;2023-11-19T14:00:13;21.48;;;4.10;;
22230;SDS011;11284;48.086;-1.652;2023-11-19T14:02:44;18.40;;;4.00;;
22230;SDS011;11284;48.086;-1.652;2023-11-19T14:05:10;16.90;;;3.85;;
22230;SDS011;11284;48.086;-1.652;2023-11-19T14:07:36;18.75;;;4.57;;
22230;SDS011;11284;48.086;-1.652;2023-11-19T14:10:02;19.73;;;3.60;;
22230;SDS011;11284;48.086;-1.652;2023-11-19T14:12:30;20.52;;;4.75;;
22230;SDS011;11284;48.086;-1.652;2023-11-19T14:14:57;22.58;;;4.10;;
22230;SDS011;11284;48.086;-1.652;2023-11-19T14:17:23;21.48;;;3.83;;
22230;SDS011;11284;48.086;-1.652;2023-11-19T14:19:50;19.02;;;3.80;;
22230;SDS011;11284;48.086;-1.652;2023-11-19T14:22:16;19.85;;;3.83;;
22230;SDS011;11284;48.086;-1.652;2023-11-19T14:24:42;18.02;;;3.60;;
22230;SDS011;11284;48.086;-1.652;2023-11-19T14:27:08;16.80;;;3.55;;
22230;SDS011;11284;48.086;-1.652;2023-11-19T14:29:35;15.05;;;3.47;;
22230;SDS011;11284;48.086;-1.652;2023-11-19T14:32:01;17.48;;;4.28;;
22230;SDS011;11284;48.086;-1.652;2023-11-19T14:34:28;16.13;;;3.85;;
22230;SDS011;11284;48.086;-1.652;2023-11-19T14:36:54;20.58;;;4.47;;
22230;SDS011;11284;48.086;-1.652;2023-11-19T14:39:20;20.23;;;4.40;;
22230;SDS011;11284;48.086;-1.652;2023-11-19T14:41:46;22.05;;;4.50;;
22230;SDS011;11284;48.086;-1.652;2023-11-19T14:44:12;17.23;;;4.10;;
22230;SDS011;11284;48.086;-1.652;2023-11-19T14:46:38;21.05;;;4.30;;
22230;SDS011;11284;48.086;-1.652;2023-11-19T14:49:04;23.48;;;5.63;;